Time;durP1;ratioP1;P1;durP2;ratioP2;P2;SDS_P1;SDS_P2;PMS_P1;PMS_P2;Temp;Humidity;BMP_temperature;BMP_pressure;BME280_temperature;BME280_humidity;BME280_pressure;Samples;Min_cycle;Max_cycle;Signal;HPM_P1;HPM_P2
2023/03/13 00:01:15;;;;;;;;;;;13.90;88.60;;;;;;5092715;28;20007;-14
2023/03/13 00:03:40;;;;;;;;;;;13.90;88.70;;;;;;5091327;28;20202;-17
2023/03/13 00:06:06;;;;;;;;;;;13.90;88.60;;;;;;5092699;28;19935;-14
2023/03/13 00:08:32;;;;;;;;;;;13.90;88.70;;;;;;5089905;28;19977;-15
2023/03/13 00:11:01;;;;;;;;;;;13.90;88.70;;;;;;5090888;28;20255;-18
2023/03/13 00:13:26;;;;;;;;;;;13.90;88.70;;;;;;5091430;28;19908;-17
2023/03/13 00:15:58;;;;;;;;;;;13.90;88.70;;;;;;5090648;28;19916;-16
2023/03/13 00:18:24;;;;;;;;;;;13.90;88.70;;;;;;5090895;28;20059;-16
2023/03/13 00:20:56;;;;;;;;;;;13.90;88.80;;;;;;5090588;28;20151;-14
2023/03/13 00:23:21;;;;;;;;;;;13.90;88.80;;;;;;5090210;28;19908;-16
2023/03/13 00:25:47;;;;;;;;;;;13.90;88.80;;;;;;5092548;28;20236;-18
2023/03/13 00:28:12;;;;;;;;;;;13.90;88.70;;;;;;5091447;28;19908;-15
2023/03/13 00:30:38;;;;;;;;;;;13.90;88.80;;;;;;5091318;28;19909;-15
2023/03/13 00:33:04;;;;;;;;;;;13.90;88.80;;;;;;5090968;28;20293;-15
2023/03/13 00:35:29;;;;;;;;;;;13.90;88.80;;;;;;5091110;28;19920;-17
2023/03/13 00:37:55;;;;;;;;;;;13.90;88.80;;;;;;5090473;28;19909;-17
2023/03/13 00:40:20;;;;;;;;;;;13.90;88.70;;;;;;5091066;28;20252;-17
2023/03/13 00:42:46;;;;;;;;;;;13.90;88.80;;;;;;5089730;28;19947;-15
2023/03/13 00:45:11;;;;;;;;;;;13.90;88.70;;;;;;5089736;28;19916;-15
2023/03/13 00:47:37;;;;;;;;;;;13.90;88.90;;;;;;5089427;28;20092;-14
2023/03/13 00:50:03;;;;;;;;;;;13.90;88.90;;;;;;5090613;28;19912;-17
2023/03/13 00:52:29;;;;;;;;;;;13.90;88.90;;;;;;5091606;28;19935;-16
2023/03/13 00:54:54;;;;;;;;;;;13.90;88.90;;;;;;5091304;28;20010;-15
2023/03/13 00:57:20;;;;;;;;;;;13.90;88.90;;;;;;5089343;28;19919;-15
2023/03/13 00:59:45;;;;;;;;;;;13.90;88.90;;;;;;5091420;28;19966;-16
2023/03/13 01:02:12;;;;;;;;;;;13.90;88.90;;;;;;5090529;28;19999;-18
2023/03/13 01:04:37;;;;;;;;;;;13.90;89.10;;;;;;5089686;28;19970;-14
2023/03/13 01:07:03;;;;;;;;;;;13.90;89.10;;;;;;5077135;28;19940;-17
2023/03/13 01:09:28;;;;;;;;;;;13.90;89.00;;;;;;5076428;28;19908;-15
2023/03/13 01:11:55;;;;;;;;;;;13.90;89.10;;;;;;5075673;28;19944;-16
2023/03/13 01:14:20;;;;;;;;;;;13.90;89.30;;;;;;5074369;28;19912;-16
2023/03/13 01:16:46;;;;;;;;;;;14.00;89.30;;;;;;5075450;28;19909;-13
2023/03/13 01:19:13;;;;;;;;;;;14.00;89.40;;;;;;5073602;28;20234;-17
2023/03/13 01:21:40;;;;;;;;;;;13.90;89.40;;;;;;5074925;28;19973;-14
2023/03/13 01:24:05;;;;;;;;;;;13.90;89.50;;;;;;5068747;28;20012;-18
2023/03/13 01:26:31;;;;;;;;;;;13.90;89.60;;;;;;5063725;28;20246;-15
2023/03/13 01:28:57;;;;;;;;;;;13.90;89.60;;;;;;5053321;28;19908;-17
2023/03/13 01:31:30;;;;;;;;;;;14.00;89.80;;;;;;5054837;28;19909;-16
2023/03/13 01:33:57;;;;;;;;;;;13.90;89.80;;;;;;5054855;28;19936;-17
2023/03/13 01:36:23;;;;;;;;;;;13.90;89.90;;;;;;5056202;28;19909;-14
2023/03/13 01:38:49;;;;;;;;;;;13.90;89.90;;;;;;5054921;28;19982;-14
2023/03/13 01:41:15;;;;;;;;;;;13.90;90.00;;;;;;5056223;28;19960;-16
2023/03/13 01:43:41;;;;;;;;;;;14.00;90.00;;;;;;5055786;28;20206;-14
2023/03/13 01:46:07;;;;;;;;;;;13.90;90.00;;;;;;5055548;28;20344;-14
2023/03/13 01:48:33;;;;;;;;;;;13.90;90.00;;;;;;5056288;28;19948;-14
2023/03/13 01:50:59;;;;;;;;;;;13.90;90.00;;;;;;5054786;28;19944;-17
2023/03/13 01:53:27;;;;;;;;;;;14.00;90.10;;;;;;5055201;28;19909;-15
2023/03/13 01:55:54;;;;;;;;;;;13.90;90.20;;;;;;5054365;28;19921;-16
2023/03/13 01:58:19;;;;;;;;;;;13.90;90.20;;;;;;5054973;28;19934;-16
2023/03/13 02:00:45;;;;;;;;;;;13.90;90.20;;;;;;5054549;28;20271;-17
2023/03/13 02:03:13;;;;;;;;;;;13.90;90.30;;;;;;5055504;28;19909;-14
2023/03/13 02:05:40;;;;;;;;;;;13.90;90.30;;;;;;5054791;28;19913;-17
2023/03/13 02:08:13;;;;;;;;;;;13.90;90.40;;;;;;5053763;28;19912;-15
2023/03/13 02:10:43;;;;;;;;;;;13.90;90.40;;;;;;5056806;28;19909;-17
2023/03/13 02:13:13;;;;;;;;;;;13.90;90.50;;;;;;5053462;28;20175;-17
2023/03/13 02:15:39;;;;;;;;;;;13.90;90.50;;;;;;5053575;28;19913;-17
2023/03/13 02:18:05;;;;;;;;;;;13.90;90.50;;;;;;5050669;28;19909;-14
2023/03/13 02:20:30;;;;;;;;;;;13.90;90.50;;;;;;5051796;28;20249;-16
2023/03/13 02:23:02;;;;;;;;;;;13.90;90.60;;;;;;5053765;28;19975;-14
2023/03/13 02:25:34;;;;;;;;;;;13.90;90.60;;;;;;5054941;28;19947;-17
2023/03/13 02:28:00;;;;;;;;;;;13.90;90.70;;;;;;5055797;28;19909;-17
2023/03/13 02:30:26;;;;;;;;;;;13.90;90.70;;;;;;5054975;28;19919;-16
2023/03/13 02:32:52;;;;;;;;;;;13.90;90.70;;;;;;5056108;28;19909;-17
2023/03/13 02:35:20;;;;;;;;;;;13.90;90.80;;;;;;5055727;28;19924;-16
2023/03/13 02:37:47;;;;;;;;;;;13.90;90.90;;;;;;5057824;28;19920;-15
2023/03/13 02:40:14;;;;;;;;;;;13.90;90.90;;;;;;5057027;28;19917;-16
2023/03/13 02:42:40;;;;;;;;;;;13.90;90.90;;;;;;5056437;28;20311;-18
2023/03/13 02:45:07;;;;;;;;;;;13.90;91.00;;;;;;5055869;28;19916;-14
2023/03/13 02:47:32;;;;;;;;;;;13.90;91.00;;;;;;5056241;28;19956;-17
2023/03/13 02:49:58;;;;;;;;;;;13.90;91.10;;;;;;5054777;28;19959;-16
2023/03/13 02:52:26;;;;;;;;;;;13.90;91.10;;;;;;5054030;28;19956;-14
2023/03/13 02:54:56;;;;;;;;;;;13.90;91.20;;;;;;5053325;28;19982;-15
2023/03/13 02:57:22;;;;;;;;;;;13.90;91.30;;;;;;5056170;28;20285;-15
2023/03/13 02:59:47;;;;;;;;;;;13.90;91.30;;;;;;5056082;28;19951;-17
2023/03/13 03:02:13;;;;;;;;;;;13.90;91.40;;;;;;5056144;28;19916;-14
2023/03/13 03:04:38;;;;;;;;;;;13.90;91.40;;;;;;5056375;28;20163;-18
2023/03/13 03:07:04;;;;;;;;;;;13.90;91.40;;;;;;5057411;28;19913;-16
2023/03/13 03:09:30;;;;;;;;;;;13.90;91.80;;;;;;5057017;28;19909;-12
2023/03/13 03:11:55;;;;;;;;;;;13.90;91.50;;;;;;5056747;28;19974;-14
2023/03/13 03:14:21;;;;;;;;;;;13.90;91.50;;;;;;5057131;28;20198;-16
2023/03/13 03:16:46;;;;;;;;;;;13.90;91.60;;;;;;5055655;28;19917;-14
2023/03/13 03:19:12;;;;;;;;;;;13.90;91.60;;;;;;5056193;28;20269;-16
2023/03/13 03:21:38;;;;;;;;;;;13.90;91.70;;;;;;5055572;28;20175;-16
2023/03/13 03:24:04;;;;;;;;;;;13.90;91.70;;;;;;5055151;28;20083;-18
2023/03/13 03:26:29;;;;;;;;;;;13.90;91.70;;;;;;5056493;28;20212;-16
2023/03/13 03:28:55;;;;;;;;;;;13.90;91.80;;;;;;5056256;28;19916;-17
2023/03/13 03:31:21;;;;;;;;;;;13.90;91.80;;;;;;5054605;28;19909;-13
2023/03/13 03:33:47;;;;;;;;;;;13.90;91.90;;;;;;5055166;28;20003;-16
2023/03/13 03:36:17;;;;;;;;;;;13.90;91.90;;;;;;5056058;28;20344;-16
2023/03/13 03:38:43;;;;;;;;;;;13.90;91.90;;;;;;5054825;28;19982;-18
2023/03/13 03:41:09;;;;;;;;;;;14.00;92.00;;;;;;5054552;28;20276;-15
2023/03/13 03:43:35;;;;;;;;;;;13.90;92.10;;;;;;5054693;28;19960;-17
2023/03/13 03:46:01;;;;;;;;;;;13.90;92.00;;;;;;5055726;28;19952;-13
2023/03/13 03:48:26;;;;;;;;;;;13.90;92.10;;;;;;5055255;28;20270;-17
2023/03/13 03:50:52;;;;;;;;;;;14.00;92.10;;;;;;5056047;28;19916;-17
2023/03/13 03:53:17;;;;;;;;;;;14.00;92.20;;;;;;5056608;28;19913;-17
2023/03/13 03:55:43;;;;;;;;;;;13.90;92.20;;;;;;5053417;28;19923;-15
2023/03/13 03:58:09;;;;;;;;;;;13.90;92.30;;;;;;5054301;28;19909;-18
2023/03/13 04:00:34;;;;;;;;;;;13.90;92.40;;;;;;5053713;28;19909;-14
2023/03/13 04:03:00;;;;;;;;;;;13.90;92.40;;;;;;5054300;28;19920;-17
2023/03/13 04:05:26;;;;;;;;;;;13.90;92.40;;;;;;5054994;28;20077;-17
2023/03/13 04:07:51;;;;;;;;;;;14.00;92.50;;;;;;5054564;28;19908;-18
2023/03/13 04:10:17;;;;;;;;;;;13.90;92.50;;;;;;5054827;28;19932;-15
2023/03/13 04:12:42;;;;;;;;;;;13.90;92.60;;;;;;5055061;28;19919;-16
2023/03/13 04:15:08;;;;;;;;;;;13.90;92.60;;;;;;5052208;28;19917;-16
2023/03/13 04:17:34;;;;;;;;;;;14.00;92.60;;;;;;5053490;28;19908;-14
2023/03/13 04:19:59;;;;;;;;;;;14.00;92.70;;;;;;5070227;28;20190;-16
2023/03/13 04:22:25;;;;;;;;;;;14.00;92.70;;;;;;5053853;28;19931;-19
2023/03/13 04:24:51;;;;;;;;;;;14.00;92.80;;;;;;5052127;28;19908;-16
2023/03/13 04:27:16;;;;;;;;;;;14.00;92.80;;;;;;5054405;28;19913;-16
2023/03/13 04:29:42;;;;;;;;;;;14.00;92.80;;;;;;5054585;28;20193;-17
2023/03/13 04:32:08;;;;;;;;;;;14.00;92.90;;;;;;5055241;28;19916;-16
2023/03/13 04:34:33;;;;;;;;;;;14.00;92.90;;;;;;5052761;28;19951;-17
2023/03/13 04:36:59;;;;;;;;;;;14.00;92.90;;;;;;5054035;28;20277;-18
2023/03/13 04:39:24;;;;;;;;;;;14.00;92.90;;;;;;5054488;28;19923;-18
2023/03/13 04:41:53;;;;;;;;;;;14.00;92.90;;;;;;5054928;28;19909;-17
2023/03/13 04:44:19;;;;;;;;;;;14.00;92.90;;;;;;5056909;28;20261;-14
2023/03/13 04:46:45;;;;;;;;;;;14.00;93.00;;;;;;5056915;28;19915;-16
2023/03/13 04:49:11;;;;;;;;;;;14.00;93.10;;;;;;5057123;28;19909;-17
2023/03/13 04:51:37;;;;;;;;;;;14.00;93.10;;;;;;5056875;28;20033;-15
2023/03/13 04:54:02;;;;;;;;;;;14.00;93.20;;;;;;5057240;28;19909;-15
2023/03/13 04:56:28;;;;;;;;;;;14.00;93.10;;;;;;5056830;28;19994;-16
2023/03/13 04:58:54;;;;;;;;;;;14.00;93.10;;;;;;5056359;28;20296;-19
2023/03/13 05:01:19;;;;;;;;;;;14.10;93.20;;;;;;5056323;28;19909;-15
2023/03/13 05:03:45;;;;;;;;;;;14.10;93.20;;;;;;5055370;28;19931;-15
2023/03/13 05:06:11;;;;;;;;;;;14.10;93.30;;;;;;5053233;28;19909;-19
2023/03/13 05:08:37;;;;;;;;;;;14.10;93.40;;;;;;5052952;28;19916;-18
2023/03/13 05:11:02;;;;;;;;;;;14.10;93.30;;;;;;5054664;28;19924;-17
2023/03/13 05:13:28;;;;;;;;;;;14.10;93.40;;;;;;5051793;28;19915;-14
2023/03/13 05:15:53;;;;;;;;;;;14.10;93.40;;;;;;5052592;28;19925;-17
2023/03/13 05:18:19;;;;;;;;;;;14.10;93.40;;;;;;5052058;28;20163;-16
2023/03/13 05:20:44;;;;;;;;;;;14.10;93.40;;;;;;5052839;28;19919;-17
2023/03/13 05:23:10;;;;;;;;;;;14.10;93.40;;;;;;5053770;28;19909;-21
2023/03/13 05:25:36;;;;;;;;;;;14.10;93.50;;;;;;5054280;28;19920;-17
2023/03/13 05:28:01;;;;;;;;;;;14.10;93.50;;;;;;5054950;28;19909;-17
2023/03/13 05:30:27;;;;;;;;;;;14.10;93.50;;;;;;5054886;28;19908;-15
2023/03/13 05:32:52;;;;;;;;;;;14.10;93.60;;;;;;5053690;28;20071;-15
2023/03/13 05:35:19;;;;;;;;;;;14.20;93.60;;;;;;5053031;28;19913;-14
2023/03/13 05:37:45;;;;;;;;;;;14.10;93.60;;;;;;5054378;28;19974;-18
2023/03/13 05:40:11;;;;;;;;;;;14.10;93.60;;;;;;5052715;28;19908;-17
2023/03/13 05:42:36;;;;;;;;;;;14.10;93.80;;;;;;5052427;28;19916;-16
2023/03/13 05:45:02;;;;;;;;;;;14.20;93.80;;;;;;5052309;28;19959;-15
2023/03/13 05:47:28;;;;;;;;;;;14.20;93.80;;;;;;5053392;28;19916;-18
2023/03/13 05:49:53;;;;;;;;;;;14.20;93.80;;;;;;5052039;28;19920;-18
2023/03/13 05:52:19;;;;;;;;;;;14.20;93.90;;;;;;5052185;28;19916;-16
2023/03/13 05:54:44;;;;;;;;;;;14.20;93.90;;;;;;5051540;28;19968;-17
2023/03/13 05:57:10;;;;;;;;;;;14.20;94.00;;;;;;5053785;28;19909;-16
2023/03/13 05:59:35;;;;;;;;;;;14.20;94.00;;;;;;5054236;28;19913;-16
2023/03/13 06:02:01;;;;;;;;;;;14.20;94.00;;;;;;5051343;28;19939;-17
2023/03/13 06:04:27;;;;;;;;;;;14.20;94.00;;;;;;5052744;28;20003;-15
2023/03/13 06:06:52;;;;;;;;;;;14.20;94.00;;;;;;5051449;28;19940;-15
2023/03/13 06:09:18;;;;;;;;;;;14.20;94.10;;;;;;5051062;28;20002;-15
2023/03/13 06:11:44;;;;;;;;;;;14.20;94.10;;;;;;5051338;28;20175;-16
2023/03/13 06:14:09;;;;;;;;;;;14.20;94.10;;;;;;5051943;28;19962;-16
2023/03/13 06:16:35;;;;;;;;;;;14.20;94.20;;;;;;5049800;28;19909;-17
2023/03/13 06:19:01;;;;;;;;;;;14.30;94.30;;;;;;5050334;28;20198;-18
2023/03/13 06:21:26;;;;;;;;;;;14.30;94.30;;;;;;5049149;28;20235;-18
2023/03/13 06:23:53;;;;;;;;;;;14.30;94.70;;;;;;5048663;28;19920;-15
2023/03/13 06:26:18;;;;;;;;;;;14.30;95.00;;;;;;5048354;28;20053;-15
2023/03/13 06:28:44;;;;;;;;;;;14.30;95.00;;;;;;5047558;28;19927;-16
2023/03/13 06:31:10;;;;;;;;;;;14.30;95.00;;;;;;5046429;28;19921;-18
2023/03/13 06:33:36;;;;;;;;;;;14.30;95.10;;;;;;5048848;28;20496;-16
2023/03/13 06:36:02;;;;;;;;;;;14.40;95.30;;;;;;5047223;28;19913;-19
2023/03/13 06:38:28;;;;;;;;;;;14.40;95.40;;;;;;5049949;28;20143;-19
2023/03/13 06:40:53;;;;;;;;;;;14.40;95.40;;;;;;5049566;28;20336;-15
2023/03/13 06:43:19;;;;;;;;;;;14.40;95.50;;;;;;5047697;28;19909;-17
2023/03/13 06:45:45;;;;;;;;;;;14.40;95.60;;;;;;5046530;28;20206;-14
2023/03/13 06:48:11;;;;;;;;;;;14.40;95.70;;;;;;5044502;28;20043;-17
2023/03/13 06:50:37;;;;;;;;;;;14.50;95.80;;;;;;5043703;28;20256;-16
2023/03/13 06:53:02;;;;;;;;;;;14.50;95.80;;;;;;5043318;28;20010;-17
2023/03/13 06:55:29;;;;;;;;;;;14.50;95.80;;;;;;5042458;28;20077;-18
2023/03/13 06:57:55;;;;;;;;;;;14.50;95.90;;;;;;5043700;28;19936;-18
2023/03/13 07:00:21;;;;;;;;;;;14.50;96.10;;;;;;5044186;28;19912;-18
2023/03/13 07:02:46;;;;;;;;;;;14.50;96.20;;;;;;5040742;28;19956;-15
2023/03/13 07:05:13;;;;;;;;;;;14.60;96.70;;;;;;5044351;28;19909;-17
2023/03/13 07:07:40;;;;;;;;;;;14.60;97.10;;;;;;5047211;28;19909;-17
2023/03/13 07:10:05;;;;;;;;;;;14.60;97.30;;;;;;5045676;28;19959;-18
2023/03/13 07:12:31;;;;;;;;;;;14.60;97.60;;;;;;5043652;28;20498;-17
2023/03/13 07:14:56;;;;;;;;;;;14.70;97.70;;;;;;5044453;28;20282;-15
2023/03/13 07:17:22;;;;;;;;;;;14.70;97.90;;;;;;5045916;28;20368;-17
2023/03/13 07:19:48;;;;;;;;;;;14.70;97.80;;;;;;5044063;28;19919;-17
2023/03/13 07:22:13;;;;;;;;;;;14.70;97.60;;;;;;5042107;28;19917;-17
2023/03/13 07:24:39;;;;;;;;;;;14.70;97.40;;;;;;5045505;28;20191;-18
2023/03/13 07:27:06;;;;;;;;;;;14.70;97.30;;;;;;5046805;28;20301;-15
2023/03/13 07:29:31;;;;;;;;;;;14.70;97.20;;;;;;5046175;28;19919;-17
2023/03/13 07:31:57;;;;;;;;;;;14.70;97.40;;;;;;5043420;28;19913;-18
2023/03/13 07:34:22;;;;;;;;;;;14.70;97.10;;;;;;5045817;28;20045;-17
2023/03/13 07:36:48;;;;;;;;;;;14.80;97.10;;;;;;5046082;28;20210;-14
2023/03/13 07:39:14;;;;;;;;;;;14.80;97.20;;;;;;5044711;28;20140;-17
2023/03/13 07:41:39;;;;;;;;;;;14.80;97.10;;;;;;5045924;28;20385;-19
2023/03/13 07:44:05;;;;;;;;;;;14.80;97.10;;;;;;5047704;28;19940;-19
2023/03/13 07:46:30;;;;;;;;;;;14.80;97.00;;;;;;5047479;28;19997;-16
2023/03/13 07:48:56;;;;;;;;;;;14.90;97.00;;;;;;5047149;28;19909;-16
2023/03/13 07:51:23;;;;;;;;;;;14.90;97.00;;;;;;5044416;28;19909;-16
2023/03/13 07:53:49;;;;;;;;;;;14.90;96.90;;;;;;5057982;28;19924;-16
2023/03/13 07:56:16;;;;;;;;;;;14.90;97.00;;;;;;5065839;28;19912;-18
2023/03/13 07:58:42;;;;;;;;;;;14.90;97.00;;;;;;5064079;28;20038;-18
2023/03/13 08:01:08;;;;;;;;;;;14.90;97.00;;;;;;5063293;28;20198;-17
2023/03/13 08:03:34;;;;;;;;;;;14.90;97.00;;;;;;5066394;28;20049;-18
2023/03/13 08:06:00;;;;;;;;;;;14.90;97.00;;;;;;5064552;28;20203;-18
2023/03/13 08:08:26;;;;;;;;;;;14.90;97.00;;;;;;5066658;28;20155;-16
2023/03/13 08:10:57;;;;;;;;;;;15.00;97.10;;;;;;5066194;28;19919;-17
2023/03/13 08:13:23;;;;;;;;;;;15.00;97.10;;;;;;5067280;28;20208;-18
2023/03/13 08:15:48;;;;;;;;;;;15.00;97.10;;;;;;5066603;28;20019;-18
2023/03/13 08:18:14;;;;;;;;;;;15.00;97.10;;;;;;5069325;28;19916;-18
2023/03/13 08:20:39;;;;;;;;;;;15.00;97.10;;;;;;5068564;28;20105;-15
2023/03/13 08:23:05;;;;;;;;;;;15.00;97.10;;;;;;5069150;28;20173;-18
2023/03/13 08:25:31;;;;;;;;;;;15.00;97.10;;;;;;5070499;28;20158;-18
2023/03/13 08:27:57;;;;;;;;;;;15.00;97.10;;;;;;5067139;28;20006;-17
2023/03/13 08:30:22;;;;;;;;;;;15.00;97.10;;;;;;5066873;28;19972;-18
2023/03/13 08:32:48;;;;;;;;;;;15.00;97.10;;;;;;5067871;28;19908;-17
2023/03/13 08:35:14;;;;;;;;;;;15.00;97.00;;;;;;5067944;28;19917;-17
2023/03/13 08:37:39;;;;;;;;;;;15.10;97.10;;;;;;5068498;28;19912;-15
2023/03/13 08:40:09;;;;;;;;;;;15.10;97.20;;;;;;5069128;28;19916;-15
2023/03/13 08:42:35;;;;;;;;;;;15.10;97.20;;;;;;5069202;28;20173;-18
2023/03/13 08:45:01;;;;;;;;;;;15.10;97.20;;;;;;5070878;28;19909;-16
2023/03/13 08:54:09;;;;;;;;;;;15.10;97.20;;;;;;5077714;28;19916;-15
2023/03/13 08:56:37;;;;;;;;;;;15.20;97.20;;;;;;5078552;28;20201;-17
2023/03/13 09:02:18;;;;;;;;;;;15.20;97.20;;;;;;5061182;28;20251;-16
2023/03/13 09:04:54;;;;;;;;;;;15.20;97.20;;;;;;5060461;28;19909;-15
2023/03/13 09:11:08;;;;;;;;;;;15.20;97.20;;;;;;5059782;28;20216;-18
2023/03/13 09:13:38;;;;;;;;;;;15.20;97.20;;;;;;5078118;28;19920;-15
2023/03/13 09:41:00;;;;;;;;;;;15.70;96.00;;;;;;5058388;28;20367;-18
2023/03/13 09:43:31;;;;;;;;;;;15.70;96.10;;;;;;5042076;28;20559;-16
2023/03/13 09:46:05;;;;;;;;;;;15.70;96.40;;;;;;5058737;28;19909;-18
2023/03/13 09:48:38;;;;;;;;;;;15.90;96.00;;;;;;5040456;28;19909;-18
2023/03/13 09:51:22;;;;;;;;;;;15.80;95.80;;;;;;5073697;28;20163;-18
2023/03/13 09:56:57;;;;;;;;;;;15.80;96.10;;;;;;5059302;28;20015;-18
2023/03/13 10:12:16;;;;;;;;;;;16.10;95.30;;;;;;5060279;28;19924;-15
2023/03/13 10:15:18;;;;;;;;;;;16.00;95.60;;;;;;5077918;28;19990;-18
2023/03/13 10:17:46;;;;;;;;;;;16.00;95.80;;;;;;5057750;28;19919;-17
2023/03/13 10:26:48;;;;;;;;;;;16.30;95.50;;;;;;5077601;28;20048;-15
2023/03/13 10:29:13;;;;;;;;;;;16.60;94.80;;;;;;5077043;28;19908;-18
2023/03/13 10:31:41;;;;;;;;;;;16.80;94.40;;;;;;5077436;28;19990;-18
2023/03/13 10:34:17;;;;;;;;;;;16.80;94.20;;;;;;5044556;28;19913;-16
2023/03/13 10:36:45;;;;;;;;;;;16.80;94.00;;;;;;5060639;28;19924;-18
2023/03/13 10:39:17;;;;;;;;;;;16.80;94.00;;;;;;5058651;28;19924;-16
2023/03/13 10:48:17;;;;;;;;;;;16.60;94.50;;;;;;5079009;28;19969;-17
2023/03/13 10:50:44;;;;;;;;;;;16.60;94.70;;;;;;5063417;28;19913;-17
2023/03/13 10:53:28;;;;;;;;;;;16.50;94.80;;;;;;5078311;28;19935;-18
2023/03/13 10:58:58;;;;;;;;;;;16.60;95.10;;;;;;5077702;28;20012;-16
2023/03/13 11:01:28;;;;;;;;;;;16.60;95.10;;;;;;5078908;22;20084;-15
2023/03/13 11:03:59;;;;;;;;;;;16.60;95.10;;;;;;5066621;28;19931;-15
2023/03/13 11:06:29;;;;;;;;;;;16.60;94.90;;;;;;5065511;28;20295;-16
2023/03/13 11:09:01;;;;;;;;;;;16.70;94.80;;;;;;5067991;28;20132;-17
2023/03/13 11:11:29;;;;;;;;;;;16.70;94.70;;;;;;5069059;28;19919;-17
2023/03/13 11:14:15;;;;;;;;;;;16.80;94.70;;;;;;5069377;28;20085;-18
2023/03/13 11:16:53;;;;;;;;;;;16.80;94.70;;;;;;5068347;28;19989;-16
2023/03/13 11:19:39;;;;;;;;;;;16.80;94.70;;;;;;5071203;28;19909;-17
2023/03/13 11:22:21;;;;;;;;;;;16.80;94.80;;;;;;5070120;28;20107;-15
2023/03/13 11:24:49;;;;;;;;;;;16.80;94.70;;;;;;5068558;28;19912;-15
2023/03/13 11:27:21;;;;;;;;;;;16.90;94.90;;;;;;5068047;28;19909;-17
2023/03/13 11:29:52;;;;;;;;;;;16.90;94.90;;;;;;5067500;28;19908;-16
2023/03/13 11:32:37;;;;;;;;;;;16.90;94.80;;;;;;5068007;28;20506;-15
2023/03/13 11:35:05;;;;;;;;;;;16.90;94.80;;;;;;5068072;28;19912;-17
2023/03/13 11:37:32;;;;;;;;;;;16.90;94.80;;;;;;5068823;28;20100;-15
2023/03/13 11:40:06;;;;;;;;;;;16.90;94.90;;;;;;5067066;28;19916;-16
2023/03/13 11:42:35;;;;;;;;;;;16.90;95.00;;;;;;5068763;28;20003;-14
2023/03/13 11:45:01;;;;;;;;;;;16.90;95.00;;;;;;5067365;28;20380;-16
2023/03/13 11:47:42;;;;;;;;;;;16.90;95.00;;;;;;5063629;28;19909;-17
2023/03/13 11:50:26;;;;;;;;;;;16.90;95.00;;;;;;5067278;28;19973;-16
2023/03/13 11:52:51;;;;;;;;;;;16.90;95.10;;;;;;5065001;28;19923;-15
2023/03/13 11:55:23;;;;;;;;;;;16.90;95.20;;;;;;5068158;28;19912;-14
2023/03/13 11:57:55;;;;;;;;;;;16.90;95.20;;;;;;5066761;28;19920;-14
2023/03/13 12:00:24;;;;;;;;;;;17.00;95.20;;;;;;5066471;28;19919;-16
2023/03/13 12:02:55;;;;;;;;;;;16.90;95.40;;;;;;5062858;28;19930;-15
2023/03/13 12:05:22;;;;;;;;;;;17.00;95.10;;;;;;5059831;28;19920;-16
2023/03/13 12:08:02;;;;;;;;;;;17.00;95.10;;;;;;5059379;28;19940;-19
2023/03/13 12:10:40;;;;;;;;;;;17.00;95.10;;;;;;5060074;28;20200;-15
2023/03/13 12:13:11;;;;;;;;;;;17.00;95.10;;;;;;5061014;28;20177;-15
2023/03/13 12:15:42;;;;;;;;;;;17.00;95.10;;;;;;5059247;28;19987;-18
2023/03/13 12:18:17;;;;;;;;;;;17.00;95.20;;;;;;5065789;28;19974;-16
2023/03/13 12:20:49;;;;;;;;;;;17.10;95.20;;;;;;5062871;28;19973;-16
2023/03/13 12:23:19;;;;;;;;;;;17.10;95.10;;;;;;5060890;28;20304;-18
2023/03/13 12:25:47;;;;;;;;;;;17.10;95.10;;;;;;5062830;28;19985;-15
2023/03/13 12:28:23;;;;;;;;;;;17.10;95.20;;;;;;5060987;28;20256;-18
2023/03/13 12:30:55;;;;;;;;;;;17.10;95.30;;;;;;5062321;28;19920;-16
2023/03/13 12:33:26;;;;;;;;;;;17.10;95.60;;;;;;5059956;28;20160;-14
2023/03/13 12:36:05;;;;;;;;;;;17.10;95.30;;;;;;5061420;28;19912;-16
2023/03/13 12:38:36;;;;;;;;;;;17.10;95.30;;;;;;5059787;28;20360;-15
2023/03/13 12:41:20;;;;;;;;;;;17.10;95.50;;;;;;5058965;28;19909;-14
2023/03/13 12:43:48;;;;;;;;;;;17.10;95.60;;;;;;5062279;28;19908;-17
2023/03/13 12:46:28;;;;;;;;;;;17.10;95.60;;;;;;5061728;28;19916;-16
2023/03/13 12:49:06;;;;;;;;;;;17.10;95.70;;;;;;5062995;28;19912;-16
2023/03/13 12:51:50;;;;;;;;;;;17.00;95.70;;;;;;5062844;28;19966;-15
2023/03/13 12:54:36;;;;;;;;;;;17.10;95.90;;;;;;5062678;28;19919;-16
2023/03/13 12:57:28;;;;;;;;;;;17.10;95.80;;;;;;5063517;28;19913;-16
2023/03/13 13:00:04;;;;;;;;;;;17.10;95.70;;;;;;5048540;28;19908;-17
2023/03/13 13:02:30;;;;;;;;;;;17.10;95.70;;;;;;5064963;28;19916;-17
2023/03/13 13:04:57;;;;;;;;;;;17.10;95.80;;;;;;5069045;28;20243;-17
2023/03/13 13:07:25;;;;;;;;;;;17.10;95.80;;;;;;5068756;28;20033;-17
2023/03/13 13:10:11;;;;;;;;;;;17.10;95.90;;;;;;5066439;28;19909;-16
2023/03/13 13:12:40;;;;;;;;;;;17.00;95.90;;;;;;5058786;28;19908;-16
2023/03/13 13:15:23;;;;;;;;;;;17.10;96.00;;;;;;5067103;28;19927;-18
2023/03/13 13:17:52;;;;;;;;;;;17.10;96.00;;;;;;5065569;28;19974;-16
2023/03/13 13:20:33;;;;;;;;;;;17.10;96.00;;;;;;5063541;28;20077;-14
2023/03/13 13:23:17;;;;;;;;;;;17.10;96.10;;;;;;5064625;28;19908;-15
2023/03/13 13:25:44;;;;;;;;;;;17.00;96.10;;;;;;5071860;28;19974;-14
2023/03/13 13:28:20;;;;;;;;;;;17.10;96.20;;;;;;5077439;28;19954;-15
2023/03/13 13:30:46;;;;;;;;;;;17.10;96.20;;;;;;5071912;28;20031;-19
2023/03/13 13:33:18;;;;;;;;;;;17.10;96.20;;;;;;5066645;28;19908;-18
2023/03/13 13:36:04;;;;;;;;;;;17.10;96.10;;;;;;5065943;28;19916;-15
2023/03/13 13:38:35;;;;;;;;;;;17.20;96.10;;;;;;5073729;28;19952;-16
2023/03/13 13:41:00;;;;;;;;;;;17.20;96.10;;;;;;5074772;28;19995;-15
2023/03/13 13:43:29;;;;;;;;;;;17.20;96.10;;;;;;5074177;28;19987;-15
2023/03/13 13:46:00;;;;;;;;;;;17.20;96.20;;;;;;5059938;28;19912;-15
2023/03/13 13:48:31;;;;;;;;;;;17.20;96.20;;;;;;5057190;28;20443;-16
2023/03/13 13:51:10;;;;;;;;;;;17.10;96.20;;;;;;5056754;28;19909;-17
2023/03/13 13:53:54;;;;;;;;;;;17.20;96.30;;;;;;5056766;28;19909;-14
2023/03/13 13:56:55;;;;;;;;;;;17.20;96.30;;;;;;5057253;28;19917;-16
2023/03/13 13:59:21;;;;;;;;;;;17.10;96.20;;;;;;4994438;28;20522;-17
2023/03/13 14:01:49;;;;;;;;;;;17.10;96.30;;;;;;4994801;28;19917;-17
2023/03/13 14:04:23;;;;;;;;;;;17.10;96.30;;;;;;4995869;28;19909;-16
2023/03/13 14:06:50;;;;;;;;;;;17.20;96.30;;;;;;5008550;28;19973;-18
2023/03/13 14:09:19;;;;;;;;;;;17.10;96.30;;;;;;5056911;28;19970;-17
2023/03/13 14:11:44;;;;;;;;;;;17.20;96.40;;;;;;5056477;28;19916;-16
2023/03/13 14:14:14;;;;;;;;;;;17.10;96.30;;;;;;5056670;28;19912;-17
2023/03/13 14:16:51;;;;;;;;;;;17.10;96.40;;;;;;5073124;28;19916;-18
2023/03/13 14:19:49;;;;;;;;;;;17.10;96.40;;;;;;5056874;28;19944;-17
2023/03/13 14:22:15;;;;;;;;;;;17.10;96.50;;;;;;5053880;28;19917;-17
2023/03/13 14:24:41;;;;;;;;;;;17.10;96.50;;;;;;5057944;28;20423;-17
2023/03/13 14:27:16;;;;;;;;;;;17.10;96.60;;;;;;5059521;28;19968;-17
2023/03/13 14:30:03;;;;;;;;;;;17.10;96.60;;;;;;5064506;28;20412;-18
2023/03/13 14:32:29;;;;;;;;;;;17.10;96.60;;;;;;5072544;28;19939;-13
2023/03/13 14:34:54;;;;;;;;;;;17.10;96.60;;;;;;5074761;28;20220;-15
2023/03/13 14:37:34;;;;;;;;;;;17.10;96.60;;;;;;5075447;28;19913;-19
2023/03/13 14:40:30;;;;;;;;;;;17.10;96.60;;;;;;5067785;28;20015;-16
2023/03/13 14:43:00;;;;;;;;;;;17.10;96.70;;;;;;5069919;28;19919;-16
2023/03/13 14:45:33;;;;;;;;;;;17.10;96.80;;;;;;5074729;28;20000;-16
2023/03/13 14:48:03;;;;;;;;;;;17.10;96.70;;;;;;5074094;28;20171;-18
2023/03/13 14:50:28;;;;;;;;;;;17.10;96.70;;;;;;5074760;28;20276;-14
2023/03/13 14:52:56;;;;;;;;;;;17.10;96.70;;;;;;5075684;28;20296;-13
2023/03/13 14:55:21;;;;;;;;;;;17.10;96.70;;;;;;5076638;28;19982;-15
2023/03/13 14:58:22;;;;;;;;;;;17.10;96.70;;;;;;5076102;28;19999;-18
2023/03/13 15:00:51;;;;;;;;;;;17.10;96.80;;;;;;5077962;22;20219;-16
2023/03/13 15:03:18;;;;;;;;;;;17.00;96.90;;;;;;5069498;28;19923;-16
2023/03/13 15:05:49;;;;;;;;;;;17.00;97.00;;;;;;5076326;28;20438;-15
2023/03/13 15:08:16;;;;;;;;;;;17.00;97.00;;;;;;5058097;28;19916;-16
2023/03/13 15:10:41;;;;;;;;;;;17.00;97.10;;;;;;5057527;28;20221;-15
2023/03/13 15:13:15;;;;;;;;;;;17.00;97.00;;;;;;5057586;28;19958;-19
2023/03/13 15:15:40;;;;;;;;;;;17.00;97.10;;;;;;5074673;28;19912;-16
2023/03/13 15:18:26;;;;;;;;;;;17.00;97.20;;;;;;5057731;28;20006;-15
2023/03/13 15:20:56;;;;;;;;;;;17.00;97.10;;;;;;5069763;28;19974;-17
2023/03/13 15:23:22;;;;;;;;;;;17.00;97.10;;;;;;5072817;28;19908;-16
2023/03/13 15:25:58;;;;;;;;;;;17.00;97.20;;;;;;5039546;28;19917;-16
2023/03/13 15:28:23;;;;;;;;;;;17.00;97.20;;;;;;5036482;28;20004;-18
2023/03/13 15:30:52;;;;;;;;;;;17.00;97.10;;;;;;5045110;28;20010;-17
2023/03/13 15:33:19;;;;;;;;;;;17.00;97.10;;;;;;5063279;28;19908;-16
2023/03/13 15:35:46;;;;;;;;;;;17.00;97.10;;;;;;5074488;28;19959;-16